Terminal Aerodrome Forecast
Issued by NWS

Home | Current Version | Previous Version | Text Only | Print | Product List | Glossary On
Versions: 1 2 3 4 5 6 7 8 9 10 11 12 13
000
FTUS41 KALY 302339
TAFPSF
TAF
KPSF 302339Z 0100/0124 VRB05KT P6SM BKN050 OVC250
     FM010900 VRB03KT P6SM VCSH SCT030 OVC060
     FM011500 15008KT 3SM -RA BR OVC015=

USA.gov is the U.S. government's official web portal to all federal, state and local government web resources and services.